Time;durP1;ratioP1;P1;durP2;ratioP2;P2;SDS_P1;SDS_P2;PMS_P1;PMS_P2;Temp;Humidity;BMP_temperature;BMP_pressure;BME280_temperature;BME280_humidity;BME280_pressure;Samples;Min_cycle;Max_cycle;Signal;HPM_P1;HPM_P2
2021/08/24 00:00:51;;;;;;;19.30;16.60;;;;;;;16.26;93.03;98849.38;111497;1199;63953;-82
2021/08/24 00:03:18;;;;;;;18.00;16.20;;;;;;;16.30;93.22;98845.98;111506;1192;61057;-82
2021/08/24 00:05:46;;;;;;;19.40;17.20;;;;;;;16.33;93.57;98841.70;111481;1192;60986;-82
2021/08/24 00:08:15;;;;;;;19.60;17.60;;;;;;;16.39;93.69;98842.94;111533;1192;65854;-82
2021/08/24 00:10:46;;;;;;;19.60;17.60;;;;;;;16.46;93.85;98844.11;111542;1199;61142;-82
2021/08/24 00:13:14;;;;;;;21.20;18.50;;;;;;;16.51;93.88;98842.41;111516;1199;62411;-82
2021/08/24 00:15:40;;;;;;;19.70;17.40;;;;;;;16.56;94.01;98842.79;111522;1199;61017;-82
2021/08/24 00:18:09;;;;;;;22.50;17.60;;;;;;;16.61;94.00;98841.98;111543;1192;60993;-82
2021/08/24 00:20:38;;;;;;;18.90;16.90;;;;;;;16.69;94.04;98840.90;111527;1199;64738;-83
2021/08/24 00:23:08;;;;;;;20.20;18.00;;;;;;;16.76;94.05;98835.18;111603;1199;60996;-83
2021/08/24 00:25:36;;;;;;;17.60;15.70;;;;;;;16.83;93.95;98834.89;111538;1200;63688;-83
2021/08/24 00:28:03;;;;;;;20.20;16.10;;;;;;;16.85;93.94;98837.40;111605;1192;60983;-83
2021/08/24 00:30:30;;;;;;;18.10;16.30;;;;;;;16.87;93.96;98839.38;111557;1195;61191;-83
2021/08/24 00:32:57;;;;;;;17.60;15.80;;;;;;;16.89;94.06;98843.27;111470;1201;65762;-83
2021/08/24 00:35:24;;;;;;;20.30;15.70;;;;;;;16.89;94.02;98847.22;111519;1192;61082;-83
2021/08/24 00:37:51;;;;;;;19.20;17.00;;;;;;;16.90;94.07;98851.84;111539;1199;71666;-83
2021/08/24 00:40:19;;;;;;;19.10;16.60;;;;;;;16.90;94.14;98847.30;111517;1192;61092;-83
2021/08/24 00:42:45;;;;;;;19.80;17.80;;;;;;;16.91;94.13;98844.52;111485;1193;61062;-83
2021/08/24 00:45:14;;;;;;;18.70;16.70;;;;;;;16.92;94.07;98841.91;111549;1199;65651;-83
2021/08/24 00:47:45;;;;;;;18.80;16.90;;;;;;;16.93;94.18;98838.25;111613;1196;61138;-83
2021/08/24 00:50:29;;;;;;;20.00;17.80;;;;;;;16.93;94.24;98842.73;111569;1199;62625;-83
2021/08/24 00:53:02;;;;;;;23.70;18.80;;;;;;;16.94;94.35;98843.41;111561;1199;61079;-83
2021/08/24 00:55:28;;;;;;;20.60;18.30;;;;;;;16.95;94.46;98844.52;111538;1193;61050;-83
2021/08/24 00:58:06;;;;;;;22.60;18.40;;;;;;;16.98;94.53;98848.33;111561;1199;65661;-82
2021/08/24 01:00:34;;;;;;;22.40;19.30;;;;;;;16.99;94.36;98852.95;111559;1199;61174;-82
2021/08/24 01:03:07;;;;;;;22.50;18.50;;;;;;;16.98;94.31;98857.48;111531;1199;64098;-82
2021/08/24 01:05:39;;;;;;;21.90;18.90;;;;;;;16.99;94.46;98858.27;111571;1199;61049;-83
2021/08/24 01:08:45;;;;;;;21.10;18.10;;;;;;;17.03;94.52;98865.48;111543;1192;61030;-82
2021/08/24 01:11:51;;;;;;;19.40;17.40;;;;;;;17.04;94.42;98869.13;111567;1199;64337;-83
2021/08/24 01:14:51;;;;;;;18.20;15.40;;;;;;;17.02;94.19;98872.91;111509;1199;60986;-83
2021/08/24 01:17:28;;;;;;;19.90;16.40;;;;;;;16.98;94.04;98873.80;111391;1199;62331;-82
2021/08/24 01:19:54;;;;;;;18.00;16.20;;;;;;;16.96;94.02;98869.36;111579;1199;61069;-82
2021/08/24 01:22:36;;;;;;;18.20;16.30;;;;;;;16.95;94.04;98869.65;111541;1192;61050;-82
2021/08/24 01:25:12;;;;;;;20.20;16.00;;;;;;;16.90;94.09;98866.86;111531;1199;65967;-82
2021/08/24 01:27:48;;;;;;;20.60;17.40;;;;;;;16.88;94.03;98867.57;111539;1199;61019;-84
2021/08/24 01:30:28;;;;;;;18.20;16.00;;;;;;;16.85;94.13;98869.00;111536;1199;63923;-85
2021/08/24 01:33:07;;;;;;;18.60;16.40;;;;;;;16.81;94.34;98871.19;111518;1192;61117;-84
2021/08/24 01:36:06;;;;;;;19.60;17.30;;;;;;;16.82;94.44;98868.72;111568;1197;61066;-84
2021/08/24 01:39:15;;;;;;;20.90;18.00;;;;;;;16.86;94.55;98866.20;111551;1199;65972;-84
2021/08/24 01:41:52;;;;;;;23.70;19.20;;;;;;;16.92;94.74;98858.95;111355;1199;61021;-84
2021/08/24 01:44:22;;;;;;;22.30;18.50;;;;;;;16.92;94.76;98857.52;111487;1192;62566;-83
2021/08/24 01:47:04;;;;;;;;;;;;;;;16.89;94.74;98861.21;111556;1192;61640;-83
2021/08/24 01:49:44;;;;;;;28.10;20.70;;;;;;;16.88;94.98;98860.46;111574;1199;61005;-83
2021/08/24 01:52:16;;;;;;;23.50;20.10;;;;;;;16.87;95.11;98856.52;111553;1199;65654;-83
2021/08/24 01:55:16;;;;;;;26.30;21.30;;;;;;;16.86;95.23;98857.06;111604;1199;61075;-83
2021/08/24 01:57:50;;;;;;;30.80;24.50;;;;;;;16.85;95.36;98860.38;111431;1199;63970;-83
2021/08/24 02:00:33;;;;;;;28.10;23.70;;;;;;;16.84;95.52;98857.01;111528;1192;61114;-83
2021/08/24 02:03:05;;;;;;;30.40;24.30;;;;;;;16.83;95.59;98862.70;111617;1192;61059;-83
2021/08/24 02:05:45;;;;;;;30.60;24.10;;;;;;;16.80;95.54;98863.86;111533;1199;65852;-83
2021/08/24 02:08:25;;;;;;;31.20;23.50;;;;;;;16.81;95.63;98858.75;111557;1199;61011;-82
2021/08/24 02:10:56;;;;;;;28.40;23.00;;;;;;;16.82;95.68;98854.52;111509;1199;64941;-82
2021/08/24 02:13:28;;;;;;;27.00;21.90;;;;;;;16.86;95.76;98853.79;111505;1199;61026;-82
2021/08/24 02:15:57;;;;;;;27.30;23.00;;;;;;;16.88;95.73;98849.98;111547;1192;61079;-82
2021/08/24 02:18:29;;;;;;;28.90;23.20;;;;;;;16.87;95.45;98851.06;111537;1199;66482;-82
2021/08/24 02:21:01;;;;;;;29.20;23.70;;;;;;;16.85;95.44;98849.45;111596;1199;61095;-82
2021/08/24 02:23:32;;;;;;;26.70;22.70;;;;;;;16.87;95.70;98852.10;111515;1199;62606;-82
2021/08/24 02:26:03;;;;;;;26.10;22.40;;;;;;;16.89;95.63;98850.79;111526;1192;61021;-82
2021/08/24 02:28:58;;;;;;;25.70;22.20;;;;;;;16.90;95.45;98845.15;111564;1192;61072;-82
2021/08/24 02:31:27;;;;;;;28.40;22.30;;;;;;;16.90;95.53;98848.23;111536;1199;65005;-82
2021/08/24 02:34:31;;;;;;;25.20;21.70;;;;;;;16.91;95.47;98852.06;111491;1199;60988;-82
2021/08/24 02:37:35;;;;;;;27.90;22.40;;;;;;;16.95;95.39;98847.74;111537;1199;72739;-82
2021/08/24 02:40:20;;;;;;;26.30;22.20;;;;;;;16.99;95.43;98850.98;111595;1197;61076;-82
2021/08/24 02:42:52;;;;;;;27.60;22.60;;;;;;;16.98;95.31;98848.50;111546;1199;61064;-82
2021/08/24 02:45:31;;;;;;;30.10;22.20;;;;;;;16.94;95.25;98842.96;111507;1199;64611;-82
2021/08/24 02:48:01;;;;;;;27.80;21.70;;;;;;;16.94;95.42;98844.80;111487;1199;61056;-82
2021/08/24 02:50:28;;;;;;;;;;;;;;;16.93;95.51;98844.73;111547;1201;63962;-82
2021/08/24 02:52:55;;;;;;;27.10;22.70;;;;;;;16.89;95.48;98845.46;111553;1199;61014;-82
2021/08/24 02:55:22;;;;;;;29.40;22.70;;;;;;;16.86;95.59;98846.61;111534;1192;61046;-82
2021/08/24 02:57:48;;;;;;;25.70;21.90;;;;;;;16.85;95.49;98844.07;111541;1199;64413;-82
2021/08/24 03:00:15;;;;;;;25.90;21.80;;;;;;;16.80;95.36;98842.72;111573;1199;61018;-82
2021/08/24 03:02:43;;;;;;;27.10;21.90;;;;;;;16.73;95.34;98841.54;111506;1193;63964;-82
2021/08/24 03:05:10;;;;;;;25.00;22.30;;;;;;;16.64;95.36;98840.96;111562;1192;61074;-82
2021/08/24 03:07:39;;;;;;;23.90;21.30;;;;;;;16.58;95.51;98838.49;111510;1196;61027;-82
2021/08/24 03:10:12;;;;;;;22.60;20.20;;;;;;;16.47;95.47;98832.73;111565;1199;65972;-82
2021/08/24 03:12:57;;;;;;;25.70;18.50;;;;;;;16.36;95.58;98831.39;111543;1199;68675;-82
2021/08/24 03:15:45;;;;;;;21.60;18.70;;;;;;;16.30;95.76;98832.52;111515;1199;62336;-82
2021/08/24 03:18:21;;;;;;;22.80;19.00;;;;;;;16.23;95.88;98832.56;111545;1199;61073;-82
2021/08/24 03:20:54;;;;;;;22.10;19.70;;;;;;;16.19;95.95;98833.67;111553;1197;61043;-81
2021/08/24 03:23:24;;;;;;;22.40;18.30;;;;;;;16.17;96.17;98833.16;111548;1199;65789;-82
2021/08/24 03:25:53;;;;;;;20.00;17.90;;;;;;;16.14;96.18;98832.71;111576;1199;60966;-82
2021/08/24 03:28:22;;;;;;;19.10;17.20;;;;;;;16.14;96.44;98831.31;111554;1199;64036;-82
2021/08/24 03:30:50;;;;;;;20.00;18.10;;;;;;;16.12;96.51;98829.84;111480;1192;61424;-82
2021/08/24 03:33:18;;;;;;;20.60;18.60;;;;;;;16.10;96.51;98833.94;111548;1196;61066;-82
2021/08/24 03:35:45;;;;;;;19.60;17.50;;;;;;;16.12;96.72;98838.81;111498;1192;65674;-82
2021/08/24 03:38:12;;;;;;;20.50;17.70;;;;;;;16.12;96.75;98842.95;111550;1199;60927;-82
2021/08/24 03:40:38;;;;;;;19.60;17.20;;;;;;;16.13;96.78;98844.63;111508;1199;63972;-82
2021/08/24 03:43:05;;;;;;;19.70;17.70;;;;;;;16.17;96.81;98849.16;111546;1199;61063;-82
2021/08/24 03:45:32;;;;;;;24.80;21.10;;;;;;;16.18;96.74;98853.11;111546;1192;61062;-82
2021/08/24 03:47:59;;;;;;;25.70;22.80;;;;;;;16.20;96.84;98856.52;111540;1199;64631;-83
2021/08/24 03:50:25;;;;;;;30.40;27.00;;;;;;;16.24;97.01;98860.11;111533;1199;60967;-84
2021/08/24 03:52:52;;;;;;;36.60;31.20;;;;;;;16.31;97.10;98866.36;111549;1199;62284;-82
2021/08/24 03:55:19;;;;;;;34.10;29.50;;;;;;;16.34;96.89;98864.58;111585;1199;61092;-82
2021/08/24 03:57:45;;;;;;;36.50;28.80;;;;;;;16.37;96.93;98863.35;111547;1199;60951;-82
2021/08/24 04:00:13;;;;;;;32.20;28.40;;;;;;;16.40;96.88;98863.86;111530;1199;64560;-82
2021/08/24 04:02:41;;;;;;;30.50;27.20;;;;;;;16.36;96.70;98862.39;111576;1200;61043;-82
2021/08/24 04:05:10;;;;;;;23.80;21.30;;;;;;;16.34;96.68;98864.80;111497;1199;63614;-81
2021/08/24 04:07:37;;;;;;;26.90;24.00;;;;;;;16.29;96.78;98862.73;111534;1199;60995;-84
2021/08/24 04:10:05;;;;;;;25.70;22.40;;;;;;;16.24;96.79;98863.33;111546;1195;61059;-83
2021/08/24 04:12:32;;;;;;;24.40;21.80;;;;;;;16.22;96.79;98865.88;111546;1199;65642;-83
2021/08/24 04:14:59;;;;;;;26.40;23.50;;;;;;;16.22;96.81;98866.94;111526;1199;61192;-83
2021/08/24 04:17:25;;;;;;;26.30;22.30;;;;;;;16.21;96.82;98874.90;111494;1199;62418;-81
2021/08/24 04:19:52;;;;;;;24.80;20.80;;;;;;;16.20;96.77;98886.63;111557;1192;60992;-82
2021/08/24 04:22:21;;;;;;;26.00;21.40;;;;;;;16.22;96.88;98888.57;111572;1195;61059;-82
2021/08/24 04:24:48;;;;;;;25.30;22.20;;;;;;;16.26;96.86;98895.82;111545;1199;65660;-81
2021/08/24 04:27:15;;;;;;;23.40;19.70;;;;;;;16.28;96.90;98896.73;111528;1199;61013;-82
2021/08/24 04:29:41;;;;;;;26.10;21.50;;;;;;;16.24;96.65;98896.30;111558;1199;62445;-82
2021/08/24 04:32:11;;;;;;;24.00;20.50;;;;;;;16.23;96.77;98900.58;111514;1197;61108;-83
2021/08/24 04:34:37;;;;;;;23.30;20.50;;;;;;;16.25;96.79;98900.18;111573;1199;61072;-83
2021/08/24 04:37:04;;;;;;;23.40;20.40;;;;;;;16.28;96.75;98904.20;111570;1199;65699;-83
2021/08/24 04:39:31;;;;;;;21.70;19.20;;;;;;;16.31;96.72;98906.47;111535;1199;61087;-83
2021/08/24 04:41:57;;;;;;;23.20;20.10;;;;;;;16.33;96.75;98905.24;111479;1199;63950;-82
2021/08/24 04:44:24;;;;;;;23.50;20.90;;;;;;;16.39;96.78;98908.22;111544;1199;61067;-82
2021/08/24 04:46:51;;;;;;;23.30;20.70;;;;;;;16.46;96.66;98908.98;111543;1193;61049;-83
2021/08/24 04:49:19;;;;;;;22.70;20.30;;;;;;;16.51;96.56;98907.50;111496;1200;64424;-83
2021/08/24 04:51:45;;;;;;;21.90;19.50;;;;;;;16.54;96.39;98907.59;111517;1193;61079;-81
2021/08/24 04:54:12;;;;;;;22.90;20.50;;;;;;;16.58;96.17;98907.05;111550;1199;63959;-81
2021/08/24 04:56:39;;;;;;;22.10;19.70;;;;;;;16.63;96.21;98912.08;111562;1193;60992;-81
2021/08/24 04:59:05;;;;;;;22.60;20.30;;;;;;;16.69;96.01;98911.91;111496;1192;61034;-84
2021/08/24 05:01:32;;;;;;;22.90;20.50;;;;;;;16.74;95.98;98910.05;111516;1199;65955;-84
2021/08/24 05:03:59;;;;;;;26.70;23.90;;;;;;;16.75;95.68;98912.92;111531;1199;61117;-84
2021/08/24 05:06:26;;;;;;;24.80;21.30;;;;;;;16.75;95.58;98918.31;111531;1200;62644;-81
2021/08/24 05:08:53;;;;;;;25.50;22.60;;;;;;;16.78;95.61;98924.59;111514;1199;61136;-83
2021/08/24 05:11:20;;;;;;;24.60;21.80;;;;;;;16.79;95.38;98927.31;111483;1196;61082;-84
2021/08/24 05:13:47;;;;;;;25.20;22.40;;;;;;;16.81;95.19;98924.99;111503;1197;64574;-84
2021/08/24 05:16:13;;;;;;;26.50;21.90;;;;;;;16.82;94.96;98923.40;111556;1199;61043;-81
2021/08/24 05:18:40;;;;;;;22.60;20.00;;;;;;;16.85;94.85;98920.13;111487;1197;63963;-82
2021/08/24 05:21:13;;;;;;;22.90;20.10;;;;;;;16.88;94.51;98917.88;111529;1199;61152;-83
2021/08/24 05:23:41;;;;;;;23.00;20.30;;;;;;;16.96;94.46;98911.77;111550;1199;61062;-82
2021/08/24 05:26:11;;;;;;;25.50;21.20;;;;;;;17.07;94.41;98910.98;111580;1199;65952;-82
2021/08/24 05:28:37;;;;;;;23.60;21.10;;;;;;;17.17;94.00;98906.52;111537;1199;60982;-82
2021/08/24 05:31:05;;;;;;;23.70;21.20;;;;;;;17.23;93.62;98904.33;111527;1199;63956;-82
2021/08/24 05:33:31;;;;;;;23.90;21.30;;;;;;;17.33;93.65;98908.95;111497;1193;61027;-83
2021/08/24 05:35:59;;;;;;;23.10;20.70;;;;;;;17.42;93.38;98909.82;111523;1192;60987;-82
2021/08/24 05:38:28;;;;;;;25.40;22.30;;;;;;;17.48;93.18;98911.45;111533;1199;64594;-82
2021/08/24 05:40:56;;;;;;;25.60;21.40;;;;;;;17.51;92.60;98912.50;111543;1199;68844;-83
2021/08/24 05:43:24;;;;;;;23.00;20.50;;;;;;;17.56;92.55;98916.72;111553;1199;62610;-82
2021/08/24 05:45:58;;;;;;;24.60;21.00;;;;;;;17.61;92.39;98916.66;111561;1192;60937;-82
2021/08/24 05:48:26;;;;;;;23.80;21.00;;;;;;;17.64;92.22;98917.99;111536;1192;60993;-82
2021/08/24 05:50:52;;;;;;;24.00;20.50;;;;;;;17.63;92.03;98922.17;111557;1199;65784;-82
2021/08/24 05:53:19;;;;;;;21.50;19.20;;;;;;;17.60;91.77;98920.48;111496;1200;61017;-82
2021/08/24 05:55:46;;;;;;;22.30;19.90;;;;;;;17.57;91.45;98924.16;111536;1199;64093;-83
2021/08/24 05:58:13;;;;;;;22.60;20.00;;;;;;;17.56;91.45;98924.11;111585;1192;61100;-82
2021/08/24 06:00:41;;;;;;;22.80;20.50;;;;;;;17.58;91.45;98928.98;111549;1195;61018;-82
2021/08/24 06:03:08;;;;;;;23.50;21.10;;;;;;;17.66;91.82;98928.65;111569;1199;66072;-82
2021/08/24 06:05:39;;;;;;;21.30;18.90;;;;;;;17.78;91.74;98932.21;111530;1199;60988;-82
2021/08/24 06:08:06;;;;;;;22.40;20.00;;;;;;;17.85;91.44;98932.88;111531;1192;63653;-82
2021/08/24 06:10:38;;;;;;;22.00;19.70;;;;;;;17.86;91.36;98935.39;111537;1199;61159;-82
2021/08/24 06:13:08;;;;;;;23.80;21.30;;;;;;;17.90;91.27;98938.40;111642;1195;61069;-82
2021/08/24 06:15:36;;;;;;;23.80;21.30;;;;;;;17.96;91.14;98942.66;111540;1200;65867;-82
2021/08/24 06:18:03;;;;;;;20.90;18.60;;;;;;;18.01;90.86;98943.83;111510;1199;61082;-82
2021/08/24 06:20:31;;;;;;;20.60;18.50;;;;;;;17.96;90.42;98943.56;111573;1199;64054;-82
2021/08/24 06:22:58;;;;;;;21.40;19.20;;;;;;;17.91;90.54;98944.41;111513;1192;61097;-82
2021/08/24 06:25:24;;;;;;;20.50;18.30;;;;;;;17.91;90.59;98951.13;111495;1192;61063;-82
2021/08/24 06:27:51;;;;;;;20.40;18.30;;;;;;;17.90;90.57;98951.91;111513;1199;64654;-82
2021/08/24 06:30:20;;;;;;;20.40;18.30;;;;;;;17.88;90.63;98957.90;111556;1199;61081;-82
2021/08/24 06:32:51;;;;;;;20.50;18.10;;;;;;;17.85;90.48;98961.36;111567;1199;63619;-82
2021/08/24 06:35:21;;;;;;;20.40;18.50;;;;;;;17.84;90.60;98964.52;111527;1199;60989;-81
2021/08/24 06:37:48;;;;;;;21.30;18.70;;;;;;;17.83;90.73;98969.85;111611;1192;61031;-84
2021/08/24 06:40:17;;;;;;;19.80;17.80;;;;;;;17.78;90.67;98970.29;111614;1199;65756;-82
2021/08/24 06:42:47;;;;;;;19.90;17.40;;;;;;;17.73;90.78;98967.20;111557;1199;61065;-84
2021/08/24 06:45:19;;;;;;;17.70;15.80;;;;;;;17.69;90.87;98967.56;111657;1199;62790;-84
2021/08/24 06:47:46;;;;;;;19.00;16.80;;;;;;;17.65;90.85;98967.76;111585;1199;61062;-85
2021/08/24 06:50:13;;;;;;;20.00;18.00;;;;;;;17.63;90.97;98966.38;111523;1193;61052;-83
2021/08/24 06:52:40;;;;;;;20.00;17.90;;;;;;;17.60;90.95;98968.80;111552;1199;65676;-86
2021/08/24 06:55:08;;;;;;;19.60;17.50;;;;;;;17.61;91.13;98971.46;111601;1199;61053;-86
2021/08/24 06:57:39;;;;;;;19.10;17.10;;;;;;;17.64;91.08;98971.48;111544;1199;64076;-84
2021/08/24 07:00:12;;;;;;;20.10;18.00;;;;;;;17.65;91.10;98973.17;111501;1199;61079;-81
2021/08/24 07:02:43;;;;;;;20.40;18.30;;;;;;;17.68;91.29;98977.70;111510;1193;61152;-84
2021/08/24 07:05:11;;;;;;;21.20;19.00;;;;;;;17.70;90.94;98979.83;111590;1199;74720;-84
2021/08/24 07:07:38;;;;;;;22.60;20.00;;;;;;;17.67;90.94;98976.42;111513;1192;61184;-84
2021/08/24 07:10:06;;;;;;;22.20;19.90;;;;;;;17.61;90.83;98980.73;111557;1199;63721;-83
2021/08/24 07:12:33;;;;;;;25.90;21.00;;;;;;;17.53;90.82;98981.52;111608;1199;61072;-84
2021/08/24 07:15:00;;;;;;;25.40;22.00;;;;;;;17.48;91.13;98981.81;111539;1192;61079;-84
2021/08/24 07:17:26;;;;;;;28.40;23.20;;;;;;;17.44;91.18;98979.89;111572;1199;64617;-83
2021/08/24 07:19:53;;;;;;;28.20;21.10;;;;;;;17.37;91.36;98982.86;111561;1199;60996;-79
2021/08/24 07:22:20;;;;;;;19.20;16.00;;;;;;;17.31;91.68;98986.31;111582;1199;63877;-84
2021/08/24 07:28:30;;;;;;;10.50;8.30;;;;;;;17.12;91.95;98993.37;111872;1196;61047;-93
2021/08/24 07:30:57;;;;;;;7.50;6.80;;;;;;;16.94;92.19;98998.07;111824;1195;64614;-94
2021/08/24 07:33:24;;;;;;;7.70;6.90;;;;;;;16.80;92.59;99002.06;112033;1199;61070;-92
2021/08/24 07:35:51;;;;;;;5.30;4.80;;;;;;;16.69;92.87;99004.05;111930;1199;63654;-95
2021/08/24 07:38:18;;;;;;;5.80;5.30;;;;;;;16.58;92.84;99010.62;111740;1199;61079;-93
2021/08/24 07:40:47;;;;;;;5.60;5.20;;;;;;;16.44;93.06;99014.31;112043;1196;60996;-92
2021/08/24 07:43:15;;;;;;;5.30;4.90;;;;;;;16.32;92.99;99019.44;111897;1192;66040;-93
2021/08/24 07:45:43;;;;;;;4.90;4.40;;;;;;;16.26;93.20;99017.48;111987;1197;61459;-92
2021/08/24 07:48:10;;;;;;;4.10;3.70;;;;;;;16.26;93.18;99017.73;111611;1195;63987;-92
2021/08/24 07:50:37;;;;;;;26.20;17.80;;;;;;;16.31;93.03;99020.50;111856;1196;61596;-93
2021/08/24 07:53:04;;;;;;;9.90;9.00;;;;;;;16.36;92.72;99023.27;112010;1194;61094;-91
2021/08/24 07:55:32;;;;;;;4.50;4.10;;;;;;;16.43;92.49;99026.41;111866;1192;66100;-93
2021/08/24 07:57:59;;;;;;;3.60;3.30;;;;;;;16.54;92.24;99026.42;111606;1199;61089;-93
2021/08/24 08:00:26;;;;;;;5.90;3.50;;;;;;;16.64;92.00;99029.49;111821;1199;63957;-93
2021/08/24 08:02:52;;;;;;;3.90;3.60;;;;;;;16.72;91.83;99035.05;111780;1199;60995;-92
2021/08/24 08:05:22;;;;;;;3.20;2.90;;;;;;;16.77;91.70;99035.71;111641;1195;61121;-93
2021/08/24 08:07:49;;;;;;;2.90;2.70;;;;;;;16.74;91.54;99039.73;111636;1196;64590;-92
2021/08/24 08:10:16;;;;;;;3.10;2.90;;;;;;;16.67;91.60;99046.27;111861;1193;61049;-92
2021/08/24 08:12:42;;;;;;;3.30;2.70;;;;;;;16.59;91.86;99054.15;111725;1192;63942;-85
2021/08/24 08:15:12;;;;;;;4.20;2.90;;;;;;;16.49;92.26;99057.17;111696;1199;61082;-86
2021/08/24 08:17:38;;;;;;;3.20;3.00;;;;;;;16.45;92.68;99058.48;111622;1192;60985;-84
2021/08/24 08:20:06;;;;;;;2.60;2.40;;;;;;;16.40;92.32;99066.28;111389;1192;66141;-84
2021/08/24 08:22:34;;;;;;;2.80;2.30;;;;;;;16.36;92.42;99069.92;111549;1199;61057;-84
2021/08/24 08:25:01;;;;;;;2.00;1.90;;;;;;;16.32;92.55;99074.05;111557;1199;62570;-84
2021/08/24 08:27:27;;;;;;;2.90;1.90;;;;;;;16.25;92.33;99074.25;111574;1199;61083;-83
2021/08/24 08:29:54;;;;;;;1.50;1.40;;;;;;;16.22;92.11;99075.62;111562;1192;60996;-84
2021/08/24 08:32:26;;;;;;;2.40;1.60;;;;;;;16.16;92.17;99080.09;111586;1199;75870;-83
2021/08/24 08:34:55;;;;;;;2.90;1.70;;;;;;;16.15;91.91;99079.84;111592;1192;61049;-84
2021/08/24 08:37:23;;;;;;;1.70;1.10;;;;;;;16.16;91.70;99082.44;111437;1199;63647;-84
2021/08/24 08:39:50;;;;;;;1.80;1.30;;;;;;;16.19;91.83;99088.40;111577;1199;61062;-84
2021/08/24 08:42:59;;;;;;;1.60;1.10;;;;;;;16.19;91.76;99090.21;111511;1193;61150;-84
2021/08/24 08:45:45;;;;;;;1.90;1.10;;;;;;;16.16;91.87;99098.52;111614;1199;65790;-83
2021/08/24 08:48:20;;;;;;;1.10;1.00;;;;;;;16.11;91.53;99097.37;111600;1199;61072;-84
2021/08/24 08:50:57;;;;;;;2.00;0.80;;;;;;;16.03;91.42;99099.66;111531;1199;63727;-85
2021/08/24 08:53:45;;;;;;;1.00;0.70;;;;;;;15.94;91.54;99106.91;111509;1199;60996;-84
2021/08/24 08:56:20;;;;;;;0.80;0.70;;;;;;;15.90;91.74;99110.66;111518;1193;61011;-83
2021/08/24 08:59:15;;;;;;;0.80;0.80;;;;;;;15.86;91.40;99117.90;111577;1199;64476;-84
2021/08/24 09:02:08;;;;;;;2.10;0.60;;;;;;;15.79;91.32;99124.35;111539;1199;61069;-83
2021/08/24 09:04:42;;;;;;;0.70;0.70;;;;;;;15.61;91.32;99133.96;111435;1199;63977;-83
2021/08/24 09:07:36;;;;;;;1.00;0.70;;;;;;;15.51;91.77;99139.84;111511;1199;61045;-83
2021/08/24 09:10:06;;;;;;;0.80;0.60;;;;;;;15.43;92.20;99142.49;111546;1199;60970;-82
2021/08/24 09:12:36;;;;;;;0.60;0.60;;;;;;;15.36;92.34;99141.95;111568;1199;66967;-82
2021/08/24 09:15:07;;;;;;;1.70;0.70;;;;;;;15.35;92.53;99145.11;111581;1199;61069;-82
2021/08/24 09:17:38;;;;;;;0.90;0.60;;;;;;;15.37;92.47;99147.60;111538;1199;62629;-82
2021/08/24 09:20:30;;;;;;;1.90;0.70;;;;;;;15.40;92.05;99149.02;111540;1199;61082;-81
2021/08/24 09:23:02;;;;;;;1.00;0.70;;;;;;;15.43;91.68;99155.19;111543;1192;61082;-82
2021/08/24 09:25:49;;;;;;;0.40;0.40;;;;;;;15.43;91.74;99161.63;111519;1192;65697;-80
2021/08/24 09:28:23;;;;;;;0.40;0.40;;;;;;;15.33;91.88;99166.06;111583;1199;60996;-81
2021/08/24 09:30:52;;;;;;;0.60;0.60;;;;;;;15.24;92.10;99172.00;111502;1199;64013;-83
2021/08/24 09:33:19;;;;;;;0.60;0.50;;;;;;;15.21;92.25;99162.91;111523;1199;61037;-83
2021/08/24 09:35:47;;;;;;;0.60;0.50;;;;;;;15.21;92.01;99163.79;111581;1192;61202;-84
2021/08/24 09:38:18;;;;;;;0.60;0.60;;;;;;;15.21;91.85;99170.48;111579;1199;74712;-84
2021/08/24 09:40:47;;;;;;;1.20;0.50;;;;;;;15.22;91.86;99180.58;111594;1199;61072;-84
2021/08/24 09:43:34;;;;;;;0.60;0.60;;;;;;;15.26;91.88;99181.11;111419;1199;64003;-84
2021/08/24 09:46:05;;;;;;;1.00;0.60;;;;;;;15.30;91.45;99187.42;111581;1192;61046;-83
2021/08/24 09:48:50;;;;;;;1.00;0.60;;;;;;;15.33;91.11;99188.98;111620;1199;61059;-84
2021/08/24 09:51:29;;;;;;;2.20;0.80;;;;;;;15.38;90.91;99191.23;111495;1199;64664;-83
2021/08/24 09:53:57;;;;;;;1.60;0.80;;;;;;;15.40;90.82;99195.03;111563;1199;61134;-83
2021/08/24 09:56:31;;;;;;;0.80;0.80;;;;;;;15.38;90.88;99197.85;111492;1199;63760;-83
2021/08/24 09:58:58;;;;;;;0.80;0.80;;;;;;;15.33;91.13;99206.66;111545;1199;61056;-81
2021/08/24 10:01:47;;;;;;;1.10;0.80;;;;;;;15.29;91.29;99205.20;111529;1199;61090;-81
2021/08/24 10:04:14;;;;;;;1.30;1.00;;;;;;;15.25;91.63;99207.49;111535;1192;64632;-82
2021/08/24 10:07:04;;;;;;;1.00;0.90;;;;;;;15.24;91.77;99213.52;111467;1199;61090;-79
2021/08/24 10:09:41;;;;;;;1.40;1.00;;;;;;;15.21;91.71;99215.71;111397;1199;63992;-81
2021/08/24 10:12:28;;;;;;;1.00;0.80;;;;;;;15.19;91.69;99218.20;111449;1199;60990;-82
2021/08/24 10:14:56;;;;;;;2.70;0.90;;;;;;;15.19;91.80;99217.50;111587;1199;60989;-81
2021/08/24 10:17:27;;;;;;;1.40;1.00;;;;;;;15.19;91.62;99223.96;111547;1199;65978;-82
2021/08/24 10:19:56;;;;;;;1.40;1.30;;;;;;;15.26;91.49;99230.70;111528;1199;61031;-82
2021/08/24 10:22:34;;;;;;;1.30;1.20;;;;;;;15.35;91.10;99233.93;111561;1199;62734;-82
2021/08/24 10:25:09;;;;;;;2.70;1.50;;;;;;;15.38;90.70;99233.48;111557;1192;61091;-82
2021/08/24 10:27:58;;;;;;;1.30;1.20;;;;;;;15.39;90.64;99237.16;111573;1199;61018;-82
2021/08/24 10:30:44;;;;;;;1.30;1.20;;;;;;;15.41;90.86;99240.76;111447;1199;65934;-83
2021/08/24 10:33:25;;;;;;;2.20;1.40;;;;;;;15.45;90.61;99244.55;111515;1199;61044;-81
2021/08/24 10:35:58;;;;;;;2.30;2.00;;;;;;;15.49;90.07;99256.19;111565;1199;62615;-82
2021/08/24 10:38:43;;;;;;;3.30;1.70;;;;;;;15.51;89.65;99254.93;111566;1192;61053;-82
2021/08/24 10:41:35;;;;;;;2.30;2.10;;;;;;;15.60;89.34;99256.54;111515;1193;61017;-83
2021/08/24 10:44:26;;;;;;;3.10;2.10;;;;;;;15.69;89.01;99263.01;111573;1199;66022;-83
2021/08/24 10:47:13;;;;;;;2.20;1.90;;;;;;;15.74;88.34;99264.92;111597;1199;61025;-83
2021/08/24 10:49:40;;;;;;;1.80;1.70;;;;;;;15.78;88.35;99267.58;111495;1196;63792;-83
2021/08/24 10:52:25;;;;;;;2.30;2.00;;;;;;;15.81;87.86;99271.65;111549;1192;61085;-83
2021/08/24 10:55:38;;;;;;;3.10;2.40;;;;;;;15.79;87.51;99271.59;111574;1193;60993;-82
2021/08/24 10:58:31;;;;;;;3.00;2.20;;;;;;;15.79;87.78;99275.05;111487;1199;64364;-82
2021/08/24 11:01:14;;;;;;;2.30;2.00;;;;;;;15.78;87.58;99278.16;111480;1199;61053;-82
2021/08/24 11:04:06;;;;;;;2.20;2.00;;;;;;;15.69;87.67;99284.46;111503;1199;63951;-82
2021/08/24 11:07:09;;;;;;;3.60;2.50;;;;;;;15.58;87.72;99286.92;111540;1193;61073;-84
2021/08/24 11:09:59;;;;;;;4.10;2.90;;;;;;;15.55;88.21;99288.09;111553;1199;60951;-84
2021/08/24 11:12:45;;;;;;;5.40;3.10;;;;;;;15.61;88.32;99287.98;111505;1199;66023;-83
2021/08/24 11:15:46;;;;;;;2.80;2.50;;;;;;;15.68;88.33;99288.11;111538;1199;61073;-83
2021/08/24 11:18:38;;;;;;;3.30;3.00;;;;;;;15.76;88.23;99291.02;111575;1199;62601;-83
2021/08/24 11:21:30;;;;;;;3.40;3.00;;;;;;;15.79;88.05;99295.05;111545;1192;61052;-83
2021/08/24 11:24:00;;;;;;;3.20;2.90;;;;;;;15.76;88.00;99303.53;111530;1198;61149;-83
2021/08/24 11:26:58;;;;;;;3.80;2.20;;;;;;;15.71;88.19;99305.04;111557;1199;66002;-83
2021/08/24 11:29:31;;;;;;;2.50;2.30;;;;;;;15.66;88.38;99309.74;111543;1199;61048;-82
2021/08/24 11:32:10;;;;;;;2.60;2.40;;;;;;;15.62;88.56;99314.73;111584;1199;63964;-82
2021/08/24 11:34:43;;;;;;;3.40;2.10;;;;;;;15.62;88.83;99318.55;111548;1193;60986;-82
2021/08/24 11:37:23;;;;;;;2.50;2.00;;;;;;;15.58;88.89;99318.48;111514;1199;61023;-85
2021/08/24 11:39:57;;;;;;;2.30;1.80;;;;;;;15.53;88.90;99323.74;111558;1199;64630;-82
2021/08/24 11:42:48;;;;;;;2.20;2.00;;;;;;;15.53;89.23;99328.55;111550;1194;61048;-83
2021/08/24 11:45:34;;;;;;;4.00;2.50;;;;;;;15.54;89.35;99336.71;111524;1192;63713;-83